createdAt,value
2023-01-04T00:01:56.480Z,2.60
2023-01-04T00:04:23.370Z,2.70
2023-01-04T00:06:50.175Z,2.70
2023-01-04T00:09:17.070Z,2.80
2023-01-04T00:11:44.166Z,2.80
2023-01-04T00:14:11.687Z,2.90
2023-01-04T00:16:38.615Z,3.00
2023-01-04T00:19:05.480Z,3.00
2023-01-04T00:21:32.373Z,3.20
2023-01-04T00:24:01.378Z,3.30
2023-01-04T00:26:33.877Z,3.50
2023-01-04T00:29:05.988Z,3.60
2023-01-04T00:31:33.987Z,4.00
2023-01-04T00:34:03.515Z,4.30
2023-01-04T00:36:31.125Z,4.50
2023-01-04T00:39:10.445Z,4.60
2023-01-04T00:44:26.166Z,4.70
2023-01-04T00:46:53.259Z,4.60
2023-01-04T00:49:20.146Z,4.80
2023-01-04T00:51:46.895Z,4.90
2023-01-04T00:54:15.334Z,5.00
2023-01-04T00:56:42.509Z,5.20
2023-01-04T00:59:12.241Z,5.30
2023-01-04T01:01:40.857Z,5.40
2023-01-04T01:04:07.984Z,5.50
2023-01-04T01:06:34.983Z,5.60
2023-01-04T01:09:01.948Z,5.70
2023-01-04T01:11:29.352Z,5.80
2023-01-04T01:13:57.531Z,5.80
2023-01-04T01:16:53.673Z,5.90
2023-01-04T01:19:12.302Z,5.90
2023-01-04T01:21:39.410Z,6.00
2023-01-04T01:24:07.021Z,6.10
2023-01-04T01:26:34.476Z,6.20
2023-01-04T01:29:01.265Z,6.20
2023-01-04T01:31:29.240Z,6.10
2023-01-04T01:33:57.447Z,6.10
2023-01-04T01:36:25.973Z,6.10
2023-01-04T01:38:54.005Z,6.00
2023-01-04T01:41:26.250Z,6.10
2023-01-04T01:44:02.017Z,6.00
2023-01-04T01:46:35.678Z,6.00
2023-01-04T01:49:10.584Z,5.90
2023-01-04T01:51:38.817Z,5.90
2023-01-04T01:54:12.925Z,5.80
2023-01-04T01:56:43.407Z,5.80
2023-01-04T01:59:12.606Z,5.70
2023-01-04T02:01:40.149Z,5.60
2023-01-04T02:04:08.564Z,5.60
2023-01-04T02:06:41.728Z,5.50
2023-01-04T02:09:09.378Z,5.50
2023-01-04T02:11:36.228Z,5.40
2023-01-04T02:14:24.084Z,5.30
2023-01-04T02:17:04.652Z,5.30
2023-01-04T02:19:55.408Z,5.30
2023-01-04T02:22:31.624Z,5.30
2023-01-04T02:25:30.566Z,5.40
2023-01-04T02:28:06.178Z,5.60
2023-01-04T02:30:44.360Z,5.80
2023-01-04T02:33:28.569Z,6.00
2023-01-04T02:36:14.317Z,6.20
2023-01-04T02:38:44.187Z,6.50
2023-01-04T02:41:33.808Z,6.50
2023-01-04T02:44:43.827Z,6.70
2023-01-04T02:47:15.897Z,6.80
2023-01-04T02:50:05.141Z,6.90
2023-01-04T02:52:33.182Z,6.90
2023-01-04T02:55:02.159Z,7.10
2023-01-04T02:57:44.486Z,7.00
2023-01-04T03:03:51.307Z,7.10
2023-01-04T03:06:28.526Z,7.00
2023-01-04T03:09:16.300Z,7.10
2023-01-04T03:12:03.436Z,7.10
2023-01-04T03:14:44.020Z,7.10
2023-01-04T03:17:14.666Z,7.10
2023-01-04T03:19:56.610Z,7.10
2023-01-04T03:22:56.247Z,7.10
2023-01-04T03:25:49.789Z,7.20
2023-01-04T03:28:35.884Z,7.20
2023-01-04T03:31:47.108Z,7.30
2023-01-04T03:34:33.070Z,7.30
2023-01-04T03:37:23.364Z,7.30
2023-01-04T03:40:42.627Z,7.30
2023-01-04T03:43:47.466Z,7.30
2023-01-04T03:47:04.772Z,7.40
2023-01-04T03:49:40.982Z,7.40
2023-01-04T03:52:10.369Z,7.40
2023-01-04T03:54:41.042Z,7.40
2023-01-04T03:57:09.650Z,7.40
2023-01-04T03:59:43.849Z,7.30
2023-01-04T04:02:14.758Z,7.40
2023-01-04T04:05:01.274Z,7.40
2023-01-04T04:07:47.425Z,7.50
2023-01-04T04:10:14.155Z,7.50
2023-01-04T04:12:41.049Z,7.50
2023-01-04T04:15:08.393Z,7.60
2023-01-04T04:17:35.233Z,7.60
2023-01-04T04:20:02.235Z,7.60
2023-01-04T04:22:28.983Z,7.70
2023-01-04T04:24:55.794Z,7.70
2023-01-04T04:27:22.582Z,7.80
2023-01-04T04:29:49.449Z,7.80
2023-01-04T04:32:16.310Z,7.80
2023-01-04T04:34:43.410Z,7.90
2023-01-04T04:37:10.218Z,7.90
2023-01-04T04:39:37.024Z,7.90
2023-01-04T04:42:03.991Z,8.00
2023-01-04T04:44:30.769Z,8.00
2023-01-04T04:46:57.625Z,8.10
2023-01-04T04:49:24.582Z,8.10
2023-01-04T04:51:51.459Z,8.10
2023-01-04T04:54:21.144Z,8.20
2023-01-04T04:56:49.277Z,8.20
2023-01-04T04:59:16.692Z,8.20
2023-01-04T05:01:43.651Z,8.20
2023-01-04T05:04:16.425Z,8.10
2023-01-04T05:06:44.407Z,8.10
2023-01-04T05:09:13.495Z,8.10
2023-01-04T05:11:59.212Z,8.10
2023-01-04T05:14:26.698Z,8.10
2023-01-04T05:16:53.891Z,8.00
2023-01-04T05:19:20.963Z,8.00
2023-01-04T05:21:47.693Z,8.00
2023-01-04T05:24:14.579Z,7.90
2023-01-04T05:26:41.649Z,7.90
2023-01-04T05:29:28.368Z,8.00
2023-01-04T05:31:55.327Z,8.10
2023-01-04T05:34:22.535Z,8.00
2023-01-04T05:36:49.455Z,8.00
2023-01-04T05:39:16.290Z,8.00
2023-01-04T05:42:02.501Z,8.00
2023-01-04T05:44:29.340Z,8.00
2023-01-04T05:46:56.183Z,8.00
2023-01-04T05:49:23.022Z,8.00
2023-01-04T05:51:49.786Z,8.10
2023-01-04T05:54:21.093Z,8.10
2023-01-04T05:56:48.213Z,8.20
2023-01-04T05:59:16.280Z,8.20
2023-01-04T06:01:44.000Z,8.10
2023-01-04T06:04:10.917Z,8.10
2023-01-04T06:06:37.781Z,8.20
2023-01-04T06:09:04.595Z,8.20
2023-01-04T06:11:31.362Z,8.20
2023-01-04T06:13:58.273Z,8.10
2023-01-04T06:16:25.180Z,8.10
2023-01-04T06:18:52.215Z,8.10
2023-01-04T06:21:19.088Z,8.10
2023-01-04T06:23:46.017Z,8.10
2023-01-04T06:26:13.408Z,8.00
2023-01-04T06:28:41.287Z,8.00
2023-01-04T06:31:10.096Z,7.90
2023-01-04T06:33:37.597Z,7.90
2023-01-04T06:36:05.722Z,7.80
2023-01-04T06:38:33.433Z,7.70
2023-01-04T06:41:00.682Z,7.70
2023-01-04T06:43:27.832Z,7.60
2023-01-04T06:45:54.710Z,7.60
2023-01-04T06:48:21.557Z,7.50
2023-01-04T06:50:48.371Z,7.50
2023-01-04T06:53:15.230Z,7.40
2023-01-04T06:55:44.641Z,7.50
2023-01-04T06:58:11.551Z,7.40
2023-01-04T07:00:38.616Z,7.30
2023-01-04T07:03:13.653Z,7.30
2023-01-04T07:05:43.149Z,7.30
2023-01-04T07:08:10.657Z,7.30
2023-01-04T07:10:37.937Z,7.20
2023-01-04T07:13:06.115Z,7.20
2023-01-04T07:15:39.168Z,7.20
2023-01-04T07:18:10.756Z,7.30
2023-01-04T07:20:38.608Z,7.30
2023-01-04T07:23:07.186Z,7.30
2023-01-04T07:25:34.552Z,7.20
2023-01-04T07:28:01.441Z,7.20
2023-01-04T07:30:28.328Z,7.20
2023-01-04T07:32:55.725Z,7.20
2023-01-04T07:35:23.362Z,7.20
2023-01-04T07:37:57.531Z,7.20
2023-01-04T07:40:26.051Z,7.20
2023-01-04T07:42:57.695Z,7.10
2023-01-04T07:45:25.189Z,7.20
2023-01-04T07:47:52.038Z,7.30
2023-01-04T07:50:22.624Z,7.30
2023-01-04T07:52:49.871Z,7.30
2023-01-04T07:55:16.740Z,7.40
2023-01-04T07:57:43.689Z,7.30
2023-01-04T08:00:11.681Z,7.40
2023-01-04T08:02:41.473Z,7.50
2023-01-04T08:05:08.759Z,7.50
2023-01-04T08:07:35.612Z,7.50
2023-01-04T08:10:02.528Z,7.60
2023-01-04T08:12:29.304Z,7.60
2023-01-04T08:14:56.277Z,7.60
2023-01-04T08:17:23.150Z,7.60
2023-01-04T08:19:49.965Z,7.60
2023-01-04T08:22:16.823Z,7.60
2023-01-04T08:24:43.645Z,7.60
2023-01-04T08:27:11.231Z,7.70
2023-01-04T08:29:38.776Z,7.70
2023-01-04T08:32:06.028Z,7.70
2023-01-04T08:34:32.973Z,7.50
2023-01-04T08:36:59.838Z,7.60
2023-01-04T08:39:29.487Z,7.60
2023-01-04T08:41:59.446Z,7.70
2023-01-04T08:44:29.679Z,7.70
2023-01-04T08:46:56.742Z,7.60
2023-01-04T08:49:24.734Z,7.50
2023-01-04T08:51:51.575Z,7.50
2023-01-04T08:54:18.729Z,7.50
2023-01-04T08:56:45.671Z,7.30
2023-01-04T08:59:16.088Z,7.30
2023-01-04T09:01:43.365Z,7.30
2023-01-04T09:04:10.503Z,7.40
2023-01-04T09:06:38.213Z,7.40
2023-01-04T09:09:05.437Z,7.30
2023-01-04T09:11:32.448Z,7.30
2023-01-04T09:14:07.303Z,7.30
2023-01-04T09:16:36.707Z,7.20
2023-01-04T09:19:04.784Z,7.30
2023-01-04T09:21:31.781Z,7.40
2023-01-04T09:23:59.281Z,7.40
2023-01-04T09:26:26.678Z,7.20
2023-01-04T09:28:55.291Z,7.20
2023-01-04T09:31:24.738Z,7.30
2023-01-04T09:36:39.068Z,7.30
2023-01-04T09:39:05.926Z,7.30
2023-01-04T09:41:38.944Z,7.30
2023-01-04T09:44:13.531Z,7.20
2023-01-04T09:46:50.909Z,7.20
2023-01-04T09:49:22.962Z,7.30
2023-01-04T09:52:09.885Z,7.30
2023-01-04T09:54:48.112Z,7.30
2023-01-04T09:57:45.641Z,7.30
2023-01-04T10:00:26.207Z,7.40
2023-01-04T10:03:15.079Z,7.40
2023-01-04T10:05:42.309Z,7.40
2023-01-04T10:08:19.379Z,7.40
2023-01-04T10:11:05.285Z,7.50
2023-01-04T10:13:44.107Z,7.50
2023-01-04T10:16:44.323Z,7.50
2023-01-04T10:22:21.506Z,7.50
2023-01-04T10:24:58.721Z,7.60
2023-01-04T10:27:46.287Z,7.70
2023-01-04T10:30:40.417Z,7.70
2023-01-04T10:33:18.920Z,7.70
2023-01-04T10:35:46.081Z,7.70
2023-01-04T10:38:20.001Z,7.70
2023-01-04T10:40:48.492Z,7.70
2023-01-04T10:43:30.785Z,7.70
2023-01-04T10:46:25.499Z,7.80
2023-01-04T10:49:18.439Z,7.80
2023-01-04T10:51:49.579Z,7.70
2023-01-04T10:54:21.921Z,7.70
2023-01-04T10:57:06.846Z,7.70
2023-01-04T10:59:39.913Z,7.70
2023-01-04T11:02:45.234Z,7.80
2023-01-04T11:05:22.352Z,7.70
2023-01-04T11:08:05.735Z,7.70
2023-01-04T11:10:42.405Z,7.60
2023-01-04T11:13:09.296Z,7.70
2023-01-04T11:15:36.250Z,7.80
2023-01-04T11:18:05.818Z,7.70
2023-01-04T11:20:37.692Z,7.80
2023-01-04T11:23:14.932Z,7.80
2023-01-04T11:25:59.076Z,7.80
2023-01-04T11:28:35.014Z,7.80
2023-01-04T11:31:07.796Z,7.80
2023-01-04T11:33:58.164Z,7.80
2023-01-04T11:36:40.228Z,7.80
2023-01-04T11:39:27.595Z,7.80
2023-01-04T11:42:02.678Z,7.90
2023-01-04T11:44:35.147Z,7.90
2023-01-04T11:47:06.821Z,7.90
2023-01-04T11:49:37.678Z,8.00
2023-01-04T11:52:05.343Z,8.00
2023-01-04T11:54:32.240Z,8.00
2023-01-04T11:57:11.954Z,8.10
2023-01-04T11:59:39.441Z,8.10
2023-01-04T12:02:58.535Z,8.10
2023-01-04T12:05:26.171Z,8.10
2023-01-04T12:07:56.321Z,8.20
2023-01-04T12:10:27.309Z,8.30
2023-01-04T12:12:55.759Z,8.30
2023-01-04T12:16:08.761Z,8.30
2023-01-04T12:18:39.288Z,8.40
2023-01-04T12:21:06.253Z,8.40
2023-01-04T12:23:34.242Z,8.40
2023-01-04T12:26:01.786Z,8.40
2023-01-04T12:28:32.525Z,8.40
2023-01-04T12:31:21.773Z,8.50
2023-01-04T12:33:51.289Z,8.50
2023-01-04T12:36:43.312Z,8.60
2023-01-04T12:39:13.953Z,8.70
2023-01-04T12:41:40.783Z,8.80
2023-01-04T12:44:47.872Z,8.90
2023-01-04T12:47:39.373Z,9.00
2023-01-04T12:50:11.317Z,9.10
2023-01-04T12:53:29.558Z,9.10
2023-01-04T12:55:45.575Z,9.10
2023-01-04T12:58:49.816Z,9.10
2023-01-04T13:01:27.491Z,9.20
2023-01-04T13:04:04.254Z,9.20
2023-01-04T13:06:41.208Z,9.30
2023-01-04T13:09:23.947Z,9.30
2023-01-04T13:12:12.490Z,9.40
2023-01-04T13:14:52.911Z,9.40
2023-01-04T13:17:22.833Z,9.40
2023-01-04T13:19:50.497Z,9.40
2023-01-04T13:22:28.610Z,9.40
2023-01-04T13:24:58.352Z,9.40
2023-01-04T13:27:26.187Z,9.30
2023-01-04T13:29:53.389Z,9.30
2023-01-04T13:32:32.050Z,9.20
2023-01-04T13:35:13.994Z,9.10
2023-01-04T13:37:45.410Z,9.10
2023-01-04T13:40:28.759Z,9.00
2023-01-04T13:43:43.641Z,9.00
2023-01-04T13:46:16.974Z,8.90
2023-01-04T13:48:47.912Z,8.90
2023-01-04T13:51:37.126Z,8.80
2023-01-04T13:54:17.183Z,8.80
2023-01-04T13:56:46.173Z,8.80
2023-01-04T13:59:17.218Z,8.80
2023-01-04T14:01:48.251Z,8.80
2023-01-04T14:04:23.140Z,8.80
2023-01-04T14:06:52.433Z,8.70
2023-01-04T14:09:23.034Z,8.80
2023-01-04T14:12:08.330Z,8.80
2023-01-04T14:14:38.637Z,8.80
2023-01-04T14:17:27.601Z,8.70
2023-01-04T14:20:00.075Z,8.70
2023-01-04T14:22:32.711Z,8.70
2023-01-04T14:25:21.010Z,8.70
2023-01-04T14:27:47.857Z,8.70
2023-01-04T14:30:36.130Z,8.80
2023-01-04T14:33:17.279Z,8.90
2023-01-04T14:35:47.863Z,8.90
2023-01-04T14:38:19.069Z,8.90
2023-01-04T14:40:46.387Z,8.90
2023-01-04T14:43:32.188Z,8.90
2023-01-04T14:45:59.068Z,8.90
2023-01-04T14:48:25.883Z,9.00
2023-01-04T14:50:52.834Z,9.00
2023-01-04T14:53:21.374Z,9.00
2023-01-04T14:55:48.575Z,9.00
2023-01-04T14:58:15.421Z,9.00
2023-01-04T15:00:42.660Z,9.00
2023-01-04T15:03:10.237Z,9.10
2023-01-04T15:05:38.135Z,9.10
2023-01-04T15:08:05.210Z,9.00
2023-01-04T15:10:32.232Z,9.10
2023-01-04T15:13:00.793Z,9.10
2023-01-04T15:15:27.829Z,9.10
2023-01-04T15:17:54.667Z,9.10
2023-01-04T15:20:21.896Z,9.10
2023-01-04T15:22:48.676Z,9.10
2023-01-04T15:25:15.679Z,9.10
2023-01-04T15:27:43.256Z,9.10
2023-01-04T15:30:13.833Z,9.10
2023-01-04T15:32:40.951Z,9.10
2023-01-04T15:35:08.607Z,9.20
2023-01-04T15:37:35.637Z,9.30
2023-01-04T15:40:03.925Z,9.20
2023-01-04T15:42:50.024Z,9.20
2023-01-04T15:45:17.053Z,9.20
2023-01-04T15:47:43.874Z,9.30
2023-01-04T15:50:10.831Z,9.30
2023-01-04T15:52:37.787Z,9.30
2023-01-04T15:55:05.055Z,9.30
2023-01-04T15:57:32.575Z,9.30
2023-01-04T15:59:59.502Z,9.20
2023-01-04T16:02:26.921Z,9.10
2023-01-04T16:04:54.002Z,9.10
2023-01-04T16:07:20.903Z,9.00
2023-01-04T16:09:47.960Z,9.10
2023-01-04T16:12:33.615Z,9.20
2023-01-04T16:15:00.595Z,9.10
2023-01-04T16:17:27.573Z,9.10
2023-01-04T16:19:54.455Z,9.20
2023-01-04T16:22:21.399Z,9.20
2023-01-04T16:27:36.033Z,9.20
2023-01-04T16:30:04.623Z,9.30
2023-01-04T16:32:31.477Z,9.20
2023-01-04T16:34:58.359Z,9.20
2023-01-04T16:37:29.093Z,9.20
2023-01-04T16:40:11.322Z,9.10
2023-01-04T16:42:39.806Z,9.10
2023-01-04T16:45:07.559Z,9.10
2023-01-04T16:47:42.150Z,9.20
2023-01-04T16:50:13.183Z,9.20
2023-01-04T16:52:40.570Z,9.20
2023-01-04T16:55:08.188Z,9.20
2023-01-04T16:57:36.612Z,9.20
2023-01-04T17:00:04.713Z,9.20
2023-01-04T17:02:31.770Z,9.30
2023-01-04T17:05:00.788Z,9.40
2023-01-04T17:07:32.915Z,9.30
2023-01-04T17:10:01.458Z,9.30
2023-01-04T17:15:42.817Z,9.40
2023-01-04T17:18:04.135Z,9.50
2023-01-04T17:20:31.125Z,9.50
2023-01-04T17:22:58.289Z,9.50
2023-01-04T17:25:26.380Z,9.50
2023-01-04T17:27:53.318Z,9.50
2023-01-04T17:30:20.348Z,9.50
2023-01-04T17:32:47.303Z,9.50
2023-01-04T17:35:14.542Z,9.40
2023-01-04T17:37:43.744Z,9.50
2023-01-04T17:40:14.206Z,9.50
2023-01-04T17:42:46.372Z,9.50
2023-01-04T17:45:13.735Z,9.50
2023-01-04T17:47:40.685Z,9.50
2023-01-04T17:50:07.999Z,9.60
2023-01-04T17:52:35.048Z,9.60
2023-01-04T17:55:02.069Z,9.60
2023-01-04T17:57:31.178Z,9.70
2023-01-04T17:59:58.163Z,9.70
2023-01-04T18:02:25.072Z,9.80
2023-01-04T18:04:52.922Z,9.80
2023-01-04T18:07:25.338Z,9.80
2023-01-04T18:09:53.192Z,9.80
2023-01-04T18:12:21.287Z,9.90
2023-01-04T18:14:48.294Z,9.80
2023-01-04T18:17:15.264Z,9.90
2023-01-04T18:19:46.218Z,9.90
2023-01-04T18:22:13.478Z,9.80
2023-01-04T18:24:40.394Z,9.90
2023-01-04T18:27:27.699Z,9.90
2023-01-04T18:29:55.993Z,10.00
2023-01-04T18:32:24.325Z,10.00
2023-01-04T18:34:51.249Z,10.00
2023-01-04T18:37:18.924Z,10.00
2023-01-04T18:39:47.302Z,10.00
2023-01-04T18:42:14.268Z,10.00
2023-01-04T18:44:47.882Z,10.10
2023-01-04T18:47:17.227Z,10.10
2023-01-04T18:49:44.203Z,10.10
2023-01-04T18:52:11.283Z,10.00
2023-01-04T18:54:38.164Z,10.00
2023-01-04T18:57:05.347Z,10.10
2023-01-04T18:59:32.860Z,10.10
2023-01-04T19:02:03.304Z,10.10
2023-01-04T19:04:35.238Z,10.10
2023-01-04T19:07:02.648Z,10.10
2023-01-04T19:09:30.690Z,10.10
2023-01-04T19:11:57.578Z,10.10
2023-01-04T19:14:24.432Z,10.10
2023-01-04T19:16:53.282Z,10.10
2023-01-04T19:19:20.383Z,10.10
2023-01-04T19:21:47.351Z,10.20
2023-01-04T19:24:14.920Z,10.20
2023-01-04T19:26:41.952Z,10.30
2023-01-04T19:29:09.100Z,10.20
2023-01-04T19:31:36.165Z,10.20
2023-01-04T19:34:05.562Z,10.30
2023-01-04T19:36:32.681Z,10.30
2023-01-04T19:38:59.869Z,10.30
2023-01-04T19:41:34.371Z,10.30
2023-01-04T19:44:09.686Z,10.40
2023-01-04T19:46:40.681Z,10.40
2023-01-04T19:49:14.824Z,10.50
2023-01-04T19:51:45.382Z,10.50
2023-01-04T19:54:19.861Z,10.50
2023-01-04T19:56:52.514Z,10.50
2023-01-04T19:59:22.082Z,10.50
2023-01-04T20:01:49.130Z,10.50
2023-01-04T20:04:16.386Z,10.60
2023-01-04T20:06:43.347Z,10.50
2023-01-04T20:09:14.483Z,10.50
2023-01-04T20:11:41.434Z,10.50
2023-01-04T20:14:11.011Z,10.60
2023-01-04T20:16:38.044Z,10.60
2023-01-04T20:19:04.967Z,10.60
2023-01-04T20:21:32.544Z,10.70
2023-01-04T20:24:00.609Z,10.70
2023-01-04T20:26:33.716Z,10.80
2023-01-04T20:29:00.730Z,10.80
2023-01-04T20:31:27.562Z,10.80
2023-01-04T20:33:56.048Z,10.80
2023-01-04T20:36:26.704Z,10.80
2023-01-04T20:38:53.885Z,10.80
2023-01-04T20:41:22.969Z,10.90
2023-01-04T20:43:50.753Z,10.90
2023-01-04T20:46:19.940Z,10.90
2023-01-04T20:48:47.259Z,10.90
2023-01-04T20:51:22.057Z,10.90
2023-01-04T20:53:49.557Z,11.00
2023-01-04T20:56:18.969Z,11.00
2023-01-04T20:58:47.356Z,11.00
2023-01-04T21:01:15.860Z,11.10
2023-01-04T21:03:43.534Z,11.10
2023-01-04T21:06:14.047Z,11.10
2023-01-04T21:08:42.709Z,11.10
2023-01-04T21:11:12.792Z,11.10
2023-01-04T21:13:40.174Z,11.10
2023-01-04T21:16:09.687Z,11.10
2023-01-04T21:18:37.653Z,11.10
2023-01-04T21:21:11.946Z,11.20
2023-01-04T21:23:40.859Z,11.20
2023-01-04T21:26:12.944Z,11.20
2023-01-04T21:28:39.880Z,11.20
2023-01-04T21:31:15.680Z,11.30
2023-01-04T21:33:46.517Z,11.30
2023-01-04T21:36:16.602Z,11.30
2023-01-04T21:38:43.966Z,11.30
2023-01-04T21:41:13.183Z,11.30
2023-01-04T21:43:41.335Z,11.30
2023-01-04T21:46:11.256Z,11.30
2023-01-04T21:48:38.397Z,11.40
2023-01-04T21:51:09.094Z,11.40
2023-01-04T21:53:40.108Z,11.40
2023-01-04T21:56:12.942Z,11.40
2023-01-04T21:58:42.448Z,11.40
2023-01-04T22:01:15.239Z,11.40
2023-01-04T22:03:42.747Z,11.50
2023-01-04T22:06:09.760Z,11.50
2023-01-04T22:08:37.165Z,11.50
2023-01-04T22:11:04.797Z,11.50
2023-01-04T22:13:31.997Z,11.50
2023-01-04T22:15:59.309Z,11.40
2023-01-04T22:18:26.277Z,11.50
2023-01-04T22:21:08.358Z,11.50
2023-01-04T22:23:35.277Z,11.50
2023-01-04T22:26:02.291Z,11.50
2023-01-04T22:28:34.810Z,11.50
2023-01-04T22:31:08.834Z,11.50
2023-01-04T22:33:37.919Z,11.50
2023-01-04T22:36:07.464Z,11.50
2023-01-04T22:38:36.040Z,11.50
2023-01-04T22:41:11.406Z,11.50
2023-01-04T22:43:39.100Z,11.50
2023-01-04T22:46:08.589Z,11.50
2023-01-04T22:48:35.965Z,11.50
2023-01-04T22:51:11.523Z,11.50
2023-01-04T22:53:39.152Z,11.50
2023-01-04T22:56:23.217Z,11.50
2023-01-04T22:58:54.255Z,11.40
2023-01-04T23:01:33.198Z,11.50
2023-01-04T23:04:01.144Z,11.50
2023-01-04T23:06:30.084Z,11.50
2023-01-04T23:08:59.249Z,11.50
2023-01-04T23:11:27.739Z,11.50
2023-01-04T23:13:55.145Z,11.40
2023-01-04T23:16:27.749Z,11.40
2023-01-04T23:18:56.665Z,11.40
2023-01-04T23:21:23.637Z,11.40
2023-01-04T23:23:51.100Z,11.40
2023-01-04T23:26:21.002Z,11.50
2023-01-04T23:28:48.700Z,11.40
2023-01-04T23:31:18.373Z,11.50
2023-01-04T23:33:45.433Z,11.50
2023-01-04T23:36:17.979Z,11.50
2023-01-04T23:38:49.500Z,11.50
2023-01-04T23:41:16.395Z,11.50
2023-01-04T23:43:43.447Z,11.40
2023-01-04T23:46:14.767Z,11.40
2023-01-04T23:48:42.477Z,11.50
2023-01-04T23:51:11.586Z,11.50
2023-01-04T23:53:38.412Z,11.50
2023-01-04T23:56:08.248Z,11.50
2023-01-04T23:58:35.087Z,11.50
